sensor_id;sensor_type;location;lat;lon;timestamp;P1;durP1;ratioP1;P2;durP2;ratioP2
18689;SDS011;9782;52.930;15.562;2022-10-31T00:00:43;152.60;;;35.87;;
18689;SDS011;9782;52.930;15.562;2022-10-31T00:03:11;99.77;;;35.70;;
18689;SDS011;9782;52.930;15.562;2022-10-31T00:05:40;39.37;;;25.60;;
18689;SDS011;9782;52.930;15.562;2022-10-31T00:08:10;44.60;;;28.30;;
18689;SDS011;9782;52.930;15.562;2022-10-31T00:13:35;30.80;;;22.93;;
18689;SDS011;9782;52.930;15.562;2022-10-31T00:16:02;36.00;;;22.97;;
18689;SDS011;9782;52.930;15.562;2022-10-31T00:18:30;37.47;;;24.70;;
18689;SDS011;9782;52.930;15.562;2022-10-31T00:20:58;44.20;;;25.23;;
18689;SDS011;9782;52.930;15.562;2022-10-31T00:23:32;64.37;;;26.77;;
18689;SDS011;9782;52.930;15.562;2022-10-31T00:26:00;291.10;;;41.27;;
18689;SDS011;9782;52.930;15.562;2022-10-31T00:28:28;267.33;;;42.87;;
18689;SDS011;9782;52.930;15.562;2022-10-31T00:30:58;337.73;;;44.10;;
18689;SDS011;9782;52.930;15.562;2022-10-31T00:33:26;118.50;;;29.07;;
18689;SDS011;9782;52.930;15.562;2022-10-31T00:35:54;38.30;;;24.10;;
18689;SDS011;9782;52.930;15.562;2022-10-31T00:38:22;38.13;;;23.33;;
18689;SDS011;9782;52.930;15.562;2022-10-31T00:40:51;99.47;;;26.80;;
18689;SDS011;9782;52.930;15.562;2022-10-31T00:43:19;274.37;;;46.60;;
18689;SDS011;9782;52.930;15.562;2022-10-31T00:45:46;219.87;;;40.73;;
18689;SDS011;9782;52.930;15.562;2022-10-31T00:48:14;117.83;;;29.77;;
18689;SDS011;9782;52.930;15.562;2022-10-31T00:50:41;130.27;;;29.17;;
18689;SDS011;9782;52.930;15.562;2022-10-31T00:53:09;247.73;;;33.50;;
18689;SDS011;9782;52.930;15.562;2022-10-31T00:55:36;231.37;;;29.37;;
18689;SDS011;9782;52.930;15.562;2022-10-31T00:58:05;224.63;;;26.47;;
18689;SDS011;9782;52.930;15.562;2022-10-31T01:00:33;254.53;;;31.50;;
18689;SDS011;9782;52.930;15.562;2022-10-31T01:03:00;301.67;;;34.13;;
18689;SDS011;9782;52.930;15.562;2022-10-31T01:05:28;246.73;;;25.03;;
18689;SDS011;9782;52.930;15.562;2022-10-31T01:07:55;124.17;;;21.07;;
18689;SDS011;9782;52.930;15.562;2022-10-31T01:10:23;298.50;;;33.27;;
18689;SDS011;9782;52.930;15.562;2022-10-31T01:12:50;276.03;;;26.57;;
18689;SDS011;9782;52.930;15.562;2022-10-31T01:15:20;308.93;;;31.37;;
18689;SDS011;9782;52.930;15.562;2022-10-31T01:17:48;532.10;;;45.10;;
18689;SDS011;9782;52.930;15.562;2022-10-31T01:20:16;374.13;;;32.07;;
18689;SDS011;9782;52.930;15.562;2022-10-31T01:22:44;280.33;;;23.33;;
18689;SDS011;9782;52.930;15.562;2022-10-31T01:25:11;375.13;;;33.30;;
18689;SDS011;9782;52.930;15.562;2022-10-31T01:27:39;81.57;;;21.57;;
18689;SDS011;9782;52.930;15.562;2022-10-31T01:30:07;460.27;;;39.10;;
18689;SDS011;9782;52.930;15.562;2022-10-31T01:32:36;604.13;;;44.97;;
18689;SDS011;9782;52.930;15.562;2022-10-31T01:35:04;686.13;;;47.73;;
18689;SDS011;9782;52.930;15.562;2022-10-31T01:37:31;588.63;;;42.47;;
18689;SDS011;9782;52.930;15.562;2022-10-31T01:39:59;521.17;;;38.40;;
18689;SDS011;9782;52.930;15.562;2022-10-31T01:42:26;399.93;;;30.93;;
18689;SDS011;9782;52.930;15.562;2022-10-31T01:44:55;165.60;;;21.90;;
18689;SDS011;9782;52.930;15.562;2022-10-31T01:47:30;120.97;;;23.90;;
18689;SDS011;9782;52.930;15.562;2022-10-31T01:50:02;51.20;;;19.40;;
18689;SDS011;9782;52.930;15.562;2022-10-31T01:52:36;54.80;;;21.23;;
18689;SDS011;9782;52.930;15.562;2022-10-31T01:55:08;36.93;;;19.73;;
18689;SDS011;9782;52.930;15.562;2022-10-31T01:57:40;33.07;;;19.10;;
18689;SDS011;9782;52.930;15.562;2022-10-31T02:00:12;28.23;;;16.77;;
18689;SDS011;9782;52.930;15.562;2022-10-31T02:02:40;38.77;;;19.13;;
18689;SDS011;9782;52.930;15.562;2022-10-31T02:05:11;29.37;;;16.83;;
18689;SDS011;9782;52.930;15.562;2022-10-31T02:07:43;201.90;;;24.27;;
18689;SDS011;9782;52.930;15.562;2022-10-31T02:10:15;394.53;;;34.40;;
18689;SDS011;9782;52.930;15.562;2022-10-31T02:12:43;454.67;;;32.13;;
18689;SDS011;9782;52.930;15.562;2022-10-31T02:15:12;293.73;;;25.27;;
18689;SDS011;9782;52.930;15.562;2022-10-31T02:17:39;66.23;;;17.90;;
18689;SDS011;9782;52.930;15.562;2022-10-31T02:20:12;144.83;;;22.93;;
18689;SDS011;9782;52.930;15.562;2022-10-31T02:22:51;456.37;;;38.40;;
18689;SDS011;9782;52.930;15.562;2022-10-31T02:28:46;108.43;;;23.17;;
18689;SDS011;9782;52.930;15.562;2022-10-31T02:31:34;34.20;;;18.93;;
18689;SDS011;9782;52.930;15.562;2022-10-31T02:34:10;169.47;;;31.07;;
18689;SDS011;9782;52.930;15.562;2022-10-31T02:36:46;504.53;;;42.20;;
18689;SDS011;9782;52.930;15.562;2022-10-31T02:39:22;364.03;;;34.40;;
18689;SDS011;9782;52.930;15.562;2022-10-31T02:41:52;335.17;;;31.03;;
18689;SDS011;9782;52.930;15.562;2022-10-31T02:44:32;38.20;;;17.27;;
18689;SDS011;9782;52.930;15.562;2022-10-31T02:47:05;29.13;;;16.73;;
18689;SDS011;9782;52.930;15.562;2022-10-31T02:49:37;27.10;;;16.53;;
18689;SDS011;9782;52.930;15.562;2022-10-31T02:52:16;26.60;;;15.93;;
18689;SDS011;9782;52.930;15.562;2022-10-31T02:54:45;36.17;;;18.13;;
18689;SDS011;9782;52.930;15.562;2022-10-31T02:57:13;43.03;;;20.60;;
18689;SDS011;9782;52.930;15.562;2022-10-31T02:59:46;48.10;;;21.87;;
18689;SDS011;9782;52.930;15.562;2022-10-31T03:02:23;50.73;;;22.10;;
18689;SDS011;9782;52.930;15.562;2022-10-31T03:05:03;57.07;;;21.67;;
18689;SDS011;9782;52.930;15.562;2022-10-31T03:08:02;141.63;;;29.10;;
18689;SDS011;9782;52.930;15.562;2022-10-31T03:10:39;203.30;;;30.73;;
18689;SDS011;9782;52.930;15.562;2022-10-31T03:13:10;481.20;;;43.80;;
18689;SDS011;9782;52.930;15.562;2022-10-31T03:15:45;479.97;;;42.23;;
18689;SDS011;9782;52.930;15.562;2022-10-31T03:18:18;72.60;;;25.90;;
18689;SDS011;9782;52.930;15.562;2022-10-31T03:20:53;69.87;;;23.43;;
18689;SDS011;9782;52.930;15.562;2022-10-31T03:23:26;51.63;;;22.00;;
18689;SDS011;9782;52.930;15.562;2022-10-31T03:25:54;210.77;;;29.67;;
18689;SDS011;9782;52.930;15.562;2022-10-31T03:28:23;271.67;;;30.50;;
18689;SDS011;9782;52.930;15.562;2022-10-31T03:30:55;161.27;;;24.37;;
18689;SDS011;9782;52.930;15.562;2022-10-31T03:33:28;178.13;;;20.03;;
18689;SDS011;9782;52.930;15.562;2022-10-31T03:35:59;183.67;;;17.53;;
18689;SDS011;9782;52.930;15.562;2022-10-31T03:38:30;102.07;;;15.37;;
18689;SDS011;9782;52.930;15.562;2022-10-31T03:41:00;146.53;;;17.07;;
18689;SDS011;9782;52.930;15.562;2022-10-31T03:43:32;73.67;;;14.73;;
18689;SDS011;9782;52.930;15.562;2022-10-31T03:46:04;59.97;;;13.40;;
18689;SDS011;9782;52.930;15.562;2022-10-31T03:48:34;65.27;;;14.00;;
18689;SDS011;9782;52.930;15.562;2022-10-31T03:51:04;65.37;;;14.37;;
18689;SDS011;9782;52.930;15.562;2022-10-31T03:53:39;80.03;;;14.87;;
18689;SDS011;9782;52.930;15.562;2022-10-31T03:56:12;69.77;;;13.87;;
18689;SDS011;9782;52.930;15.562;2022-10-31T03:58:47;49.10;;;12.43;;
18689;SDS011;9782;52.930;15.562;2022-10-31T04:01:20;76.63;;;13.63;;
18689;SDS011;9782;52.930;15.562;2022-10-31T04:03:51;77.23;;;19.00;;
18689;SDS011;9782;52.930;15.562;2022-10-31T04:06:20;67.03;;;18.03;;
18689;SDS011;9782;52.930;15.562;2022-10-31T04:08:51;66.60;;;15.07;;
18689;SDS011;9782;52.930;15.562;2022-10-31T04:11:23;104.33;;;20.43;;
18689;SDS011;9782;52.930;15.562;2022-10-31T04:13:54;119.70;;;18.40;;
18689;SDS011;9782;52.930;15.562;2022-10-31T04:16:26;94.17;;;20.00;;
18689;SDS011;9782;52.930;15.562;2022-10-31T04:18:55;117.33;;;20.33;;
18689;SDS011;9782;52.930;15.562;2022-10-31T04:21:26;89.43;;;18.10;;
18689;SDS011;9782;52.930;15.562;2022-10-31T04:23:54;78.17;;;17.53;;
18689;SDS011;9782;52.930;15.562;2022-10-31T04:26:22;75.13;;;15.30;;
18689;SDS011;9782;52.930;15.562;2022-10-31T04:28:49;69.33;;;14.13;;
18689;SDS011;9782;52.930;15.562;2022-10-31T04:31:17;80.03;;;14.33;;
18689;SDS011;9782;52.930;15.562;2022-10-31T04:33:45;46.60;;;13.80;;
18689;SDS011;9782;52.930;15.562;2022-10-31T04:36:13;42.97;;;12.50;;
18689;SDS011;9782;52.930;15.562;2022-10-31T04:38:41;53.03;;;12.03;;
18689;SDS011;9782;52.930;15.562;2022-10-31T04:41:08;76.30;;;13.57;;
18689;SDS011;9782;52.930;15.562;2022-10-31T04:43:36;66.33;;;14.17;;
18689;SDS011;9782;52.930;15.562;2022-10-31T04:46:03;70.67;;;14.60;;
18689;SDS011;9782;52.930;15.562;2022-10-31T04:48:31;88.40;;;15.03;;
18689;SDS011;9782;52.930;15.562;2022-10-31T04:50:59;111.73;;;21.10;;
18689;SDS011;9782;52.930;15.562;2022-10-31T04:53:29;107.97;;;17.43;;
18689;SDS011;9782;52.930;15.562;2022-10-31T04:55:57;112.03;;;24.13;;
18689;SDS011;9782;52.930;15.562;2022-10-31T04:58:29;97.17;;;17.93;;
18689;SDS011;9782;52.930;15.562;2022-10-31T05:00:56;110.43;;;20.53;;
18689;SDS011;9782;52.930;15.562;2022-10-31T05:03:23;99.40;;;17.30;;
18689;SDS011;9782;52.930;15.562;2022-10-31T05:05:51;80.33;;;16.93;;
18689;SDS011;9782;52.930;15.562;2022-10-31T05:08:18;110.20;;;24.10;;
18689;SDS011;9782;52.930;15.562;2022-10-31T05:10:47;79.90;;;20.80;;
18689;SDS011;9782;52.930;15.562;2022-10-31T05:13:15;98.23;;;22.97;;
18689;SDS011;9782;52.930;15.562;2022-10-31T05:15:42;107.90;;;27.17;;
18689;SDS011;9782;52.930;15.562;2022-10-31T05:18:09;112.70;;;27.37;;
18689;SDS011;9782;52.930;15.562;2022-10-31T05:20:37;102.43;;;26.23;;
18689;SDS011;9782;52.930;15.562;2022-10-31T05:23:04;111.07;;;26.53;;
18689;SDS011;9782;52.930;15.562;2022-10-31T05:25:32;111.37;;;25.80;;
18689;SDS011;9782;52.930;15.562;2022-10-31T05:28:00;114.27;;;25.53;;
18689;SDS011;9782;52.930;15.562;2022-10-31T05:30:28;96.40;;;20.93;;
18689;SDS011;9782;52.930;15.562;2022-10-31T05:32:57;117.10;;;23.87;;
18689;SDS011;9782;52.930;15.562;2022-10-31T05:35:25;79.10;;;21.57;;
18689;SDS011;9782;52.930;15.562;2022-10-31T05:37:54;90.67;;;22.77;;
18689;SDS011;9782;52.930;15.562;2022-10-31T05:40:23;67.43;;;21.47;;
18689;SDS011;9782;52.930;15.562;2022-10-31T05:42:51;53.53;;;20.60;;
18689;SDS011;9782;52.930;15.562;2022-10-31T05:45:21;88.90;;;24.30;;
18689;SDS011;9782;52.930;15.562;2022-10-31T05:47:49;110.27;;;27.30;;
18689;SDS011;9782;52.930;15.562;2022-10-31T05:50:18;105.07;;;25.97;;
18689;SDS011;9782;52.930;15.562;2022-10-31T05:52:45;82.87;;;23.37;;
18689;SDS011;9782;52.930;15.562;2022-10-31T05:55:13;109.60;;;26.30;;
18689;SDS011;9782;52.930;15.562;2022-10-31T05:57:40;110.37;;;24.67;;
18689;SDS011;9782;52.930;15.562;2022-10-31T06:00:08;145.13;;;24.07;;
18689;SDS011;9782;52.930;15.562;2022-10-31T06:02:36;189.43;;;33.70;;
18689;SDS011;9782;52.930;15.562;2022-10-31T06:05:04;228.40;;;49.77;;
18689;SDS011;9782;52.930;15.562;2022-10-31T06:07:32;236.50;;;48.23;;
18689;SDS011;9782;52.930;15.562;2022-10-31T06:09:59;178.03;;;32.97;;
18689;SDS011;9782;52.930;15.562;2022-10-31T06:12:27;223.13;;;41.93;;
18689;SDS011;9782;52.930;15.562;2022-10-31T06:14:54;171.30;;;40.10;;
18689;SDS011;9782;52.930;15.562;2022-10-31T06:17:21;172.87;;;36.27;;
18689;SDS011;9782;52.930;15.562;2022-10-31T06:19:49;140.83;;;33.07;;
18689;SDS011;9782;52.930;15.562;2022-10-31T06:22:16;162.10;;;30.67;;
18689;SDS011;9782;52.930;15.562;2022-10-31T06:24:43;89.03;;;23.63;;
18689;SDS011;9782;52.930;15.562;2022-10-31T06:27:10;65.07;;;18.47;;
18689;SDS011;9782;52.930;15.562;2022-10-31T06:29:37;61.27;;;16.00;;
18689;SDS011;9782;52.930;15.562;2022-10-31T06:32:04;69.70;;;20.23;;
18689;SDS011;9782;52.930;15.562;2022-10-31T06:34:31;90.40;;;21.17;;
18689;SDS011;9782;52.930;15.562;2022-10-31T06:37:00;55.40;;;17.60;;
18689;SDS011;9782;52.930;15.562;2022-10-31T06:39:27;65.63;;;16.83;;
18689;SDS011;9782;52.930;15.562;2022-10-31T06:41:54;54.67;;;16.93;;
18689;SDS011;9782;52.930;15.562;2022-10-31T06:44:21;70.93;;;17.97;;
18689;SDS011;9782;52.930;15.562;2022-10-31T06:46:48;78.13;;;19.87;;
18689;SDS011;9782;52.930;15.562;2022-10-31T06:49:15;60.27;;;17.07;;
18689;SDS011;9782;52.930;15.562;2022-10-31T06:51:42;55.20;;;17.77;;
18689;SDS011;9782;52.930;15.562;2022-10-31T06:54:10;75.07;;;23.87;;
18689;SDS011;9782;52.930;15.562;2022-10-31T06:56:37;81.47;;;22.33;;
18689;SDS011;9782;52.930;15.562;2022-10-31T06:59:04;59.77;;;20.03;;
18689;SDS011;9782;52.930;15.562;2022-10-31T07:01:31;65.40;;;20.53;;
18689;SDS011;9782;52.930;15.562;2022-10-31T07:03:58;58.73;;;21.47;;
18689;SDS011;9782;52.930;15.562;2022-10-31T07:06:25;71.17;;;22.43;;
18689;SDS011;9782;52.930;15.562;2022-10-31T07:08:52;80.87;;;23.03;;
18689;SDS011;9782;52.930;15.562;2022-10-31T07:11:21;90.57;;;32.10;;
18689;SDS011;9782;52.930;15.562;2022-10-31T07:13:48;102.80;;;41.13;;
18689;SDS011;9782;52.930;15.562;2022-10-31T07:16:15;127.20;;;44.23;;
18689;SDS011;9782;52.930;15.562;2022-10-31T07:18:42;86.97;;;30.03;;
18689;SDS011;9782;52.930;15.562;2022-10-31T07:21:09;97.20;;;29.87;;
18689;SDS011;9782;52.930;15.562;2022-10-31T07:23:36;61.70;;;20.97;;
18689;SDS011;9782;52.930;15.562;2022-10-31T07:26:03;66.23;;;20.90;;
18689;SDS011;9782;52.930;15.562;2022-10-31T07:28:31;57.83;;;19.17;;
18689;SDS011;9782;52.930;15.562;2022-10-31T07:30:58;56.03;;;20.27;;
18689;SDS011;9782;52.930;15.562;2022-10-31T07:33:26;52.30;;;19.00;;
18689;SDS011;9782;52.930;15.562;2022-10-31T07:35:53;58.67;;;19.83;;
18689;SDS011;9782;52.930;15.562;2022-10-31T07:38:20;62.33;;;21.63;;
18689;SDS011;9782;52.930;15.562;2022-10-31T07:40:49;83.33;;;21.57;;
18689;SDS011;9782;52.930;15.562;2022-10-31T07:43:18;82.20;;;20.63;;
18689;SDS011;9782;52.930;15.562;2022-10-31T07:45:50;49.47;;;17.87;;
18689;SDS011;9782;52.930;15.562;2022-10-31T07:48:17;117.77;;;20.40;;
18689;SDS011;9782;52.930;15.562;2022-10-31T07:50:45;72.03;;;18.83;;
18689;SDS011;9782;52.930;15.562;2022-10-31T07:53:12;48.67;;;16.80;;
18689;SDS011;9782;52.930;15.562;2022-10-31T07:55:50;46.77;;;17.87;;
18689;SDS011;9782;52.930;15.562;2022-10-31T07:58:17;49.43;;;19.43;;
18689;SDS011;9782;52.930;15.562;2022-10-31T08:00:44;78.17;;;22.00;;
18689;SDS011;9782;52.930;15.562;2022-10-31T08:03:15;67.10;;;22.57;;
18689;SDS011;9782;52.930;15.562;2022-10-31T08:05:43;70.53;;;23.67;;
18689;SDS011;9782;52.930;15.562;2022-10-31T08:08:11;51.17;;;20.77;;
18689;SDS011;9782;52.930;15.562;2022-10-31T08:10:38;64.30;;;23.63;;
18689;SDS011;9782;52.930;15.562;2022-10-31T08:13:07;52.27;;;26.37;;
18689;SDS011;9782;52.930;15.562;2022-10-31T08:15:35;70.33;;;26.83;;
18689;SDS011;9782;52.930;15.562;2022-10-31T08:18:04;66.60;;;36.17;;
18689;SDS011;9782;52.930;15.562;2022-10-31T08:20:33;50.90;;;24.77;;
18689;SDS011;9782;52.930;15.562;2022-10-31T08:23:00;42.27;;;23.30;;
18689;SDS011;9782;52.930;15.562;2022-10-31T08:25:29;37.10;;;21.00;;
18689;SDS011;9782;52.930;15.562;2022-10-31T08:27:57;37.23;;;20.63;;
18689;SDS011;9782;52.930;15.562;2022-10-31T08:30:25;36.47;;;21.20;;
18689;SDS011;9782;52.930;15.562;2022-10-31T08:32:57;30.57;;;20.67;;
18689;SDS011;9782;52.930;15.562;2022-10-31T08:35:28;28.20;;;20.07;;
18689;SDS011;9782;52.930;15.562;2022-10-31T08:37:57;29.63;;;19.80;;
18689;SDS011;9782;52.930;15.562;2022-10-31T08:40:25;33.13;;;21.00;;
18689;SDS011;9782;52.930;15.562;2022-10-31T08:42:56;32.93;;;22.93;;
18689;SDS011;9782;52.930;15.562;2022-10-31T08:45:27;31.60;;;21.27;;
18689;SDS011;9782;52.930;15.562;2022-10-31T08:47:57;30.17;;;20.27;;
18689;SDS011;9782;52.930;15.562;2022-10-31T08:50:26;35.83;;;27.63;;
18689;SDS011;9782;52.930;15.562;2022-10-31T08:53:00;50.43;;;35.90;;
18689;SDS011;9782;52.930;15.562;2022-10-31T08:55:27;46.10;;;24.83;;
18689;SDS011;9782;52.930;15.562;2022-10-31T08:57:55;38.07;;;26.57;;
18689;SDS011;9782;52.930;15.562;2022-10-31T09:00:22;30.97;;;21.33;;
18689;SDS011;9782;52.930;15.562;2022-10-31T09:02:54;31.17;;;22.60;;
18689;SDS011;9782;52.930;15.562;2022-10-31T09:05:22;38.30;;;29.47;;
18689;SDS011;9782;52.930;15.562;2022-10-31T09:07:50;34.77;;;23.23;;
18689;SDS011;9782;52.930;15.562;2022-10-31T09:10:18;28.48;;;23.48;;
18689;SDS011;9782;52.930;15.562;2022-10-31T09:12:45;32.27;;;22.07;;
18689;SDS011;9782;52.930;15.562;2022-10-31T09:15:12;43.95;;;31.40;;
18689;SDS011;9782;52.930;15.562;2022-10-31T09:17:39;32.80;;;27.42;;
18689;SDS011;9782;52.930;15.562;2022-10-31T09:20:12;32.20;;;24.85;;
18689;SDS011;9782;52.930;15.562;2022-10-31T09:22:40;32.40;;;23.90;;
18689;SDS011;9782;52.930;15.562;2022-10-31T09:25:09;39.35;;;25.58;;
18689;SDS011;9782;52.930;15.562;2022-10-31T09:27:43;34.35;;;26.05;;
18689;SDS011;9782;52.930;15.562;2022-10-31T09:30:14;32.53;;;24.40;;
18689;SDS011;9782;52.930;15.562;2022-10-31T09:32:42;44.88;;;36.70;;
18689;SDS011;9782;52.930;15.562;2022-10-31T09:35:09;70.30;;;59.75;;
18689;SDS011;9782;52.930;15.562;2022-10-31T09:37:36;45.17;;;34.35;;
18689;SDS011;9782;52.930;15.562;2022-10-31T09:40:03;33.80;;;25.50;;
18689;SDS011;9782;52.930;15.562;2022-10-31T09:42:37;30.05;;;24.73;;
18689;SDS011;9782;52.930;15.562;2022-10-31T09:45:16;32.83;;;25.13;;
18689;SDS011;9782;52.930;15.562;2022-10-31T09:47:51;33.22;;;28.40;;
18689;SDS011;9782;52.930;15.562;2022-10-31T09:50:28;31.75;;;23.23;;
18689;SDS011;9782;52.930;15.562;2022-10-31T09:53:03;32.05;;;23.27;;
18689;SDS011;9782;52.930;15.562;2022-10-31T09:55:35;29.00;;;22.27;;
18689;SDS011;9782;52.930;15.562;2022-10-31T09:58:08;39.65;;;27.10;;
18689;SDS011;9782;52.930;15.562;2022-10-31T10:00:41;33.42;;;26.13;;
18689;SDS011;9782;52.930;15.562;2022-10-31T10:03:11;34.97;;;27.85;;
18689;SDS011;9782;52.930;15.562;2022-10-31T10:05:49;30.63;;;24.35;;
18689;SDS011;9782;52.930;15.562;2022-10-31T10:08:25;32.67;;;24.95;;
18689;SDS011;9782;52.930;15.562;2022-10-31T10:10:59;33.05;;;24.70;;
18689;SDS011;9782;52.930;15.562;2022-10-31T10:13:42;32.97;;;25.17;;
18689;SDS011;9782;52.930;15.562;2022-10-31T10:16:34;38.83;;;25.27;;
18689;SDS011;9782;52.930;15.562;2022-10-31T10:19:40;37.95;;;25.95;;
18689;SDS011;9782;52.930;15.562;2022-10-31T10:22:21;36.22;;;24.90;;
18689;SDS011;9782;52.930;15.562;2022-10-31T10:25:10;33.13;;;24.80;;
18689;SDS011;9782;52.930;15.562;2022-10-31T10:27:47;40.42;;;30.52;;
18689;SDS011;9782;52.930;15.562;2022-10-31T10:30:23;35.88;;;26.77;;
18689;SDS011;9782;52.930;15.562;2022-10-31T10:32:57;33.90;;;26.20;;
18689;SDS011;9782;52.930;15.562;2022-10-31T10:35:27;39.05;;;29.17;;
18689;SDS011;9782;52.930;15.562;2022-10-31T10:38:00;34.33;;;25.83;;
18689;SDS011;9782;52.930;15.562;2022-10-31T10:40:35;33.72;;;27.02;;
18689;SDS011;9782;52.930;15.562;2022-10-31T10:43:11;39.75;;;26.48;;
18689;SDS011;9782;52.930;15.562;2022-10-31T10:45:50;35.80;;;25.88;;
18689;SDS011;9782;52.930;15.562;2022-10-31T10:48:45;38.63;;;27.25;;
18689;SDS011;9782;52.930;15.562;2022-10-31T10:51:20;35.10;;;25.83;;
18689;SDS011;9782;52.930;15.562;2022-10-31T10:56:56;37.00;;;26.65;;
18689;SDS011;9782;52.930;15.562;2022-10-31T10:59:27;36.67;;;25.95;;
18689;SDS011;9782;52.930;15.562;2022-10-31T11:01:56;38.55;;;28.95;;
18689;SDS011;9782;52.930;15.562;2022-10-31T11:04:30;36.75;;;25.40;;
18689;SDS011;9782;52.930;15.562;2022-10-31T11:07:00;35.47;;;24.92;;
18689;SDS011;9782;52.930;15.562;2022-10-31T11:09:28;35.05;;;27.35;;
18689;SDS011;9782;52.930;15.562;2022-10-31T11:11:56;29.73;;;24.60;;
18689;SDS011;9782;52.930;15.562;2022-10-31T11:14:24;37.15;;;25.75;;
18689;SDS011;9782;52.930;15.562;2022-10-31T11:16:54;36.47;;;29.02;;
18689;SDS011;9782;52.930;15.562;2022-10-31T11:19:36;33.10;;;26.83;;
18689;SDS011;9782;52.930;15.562;2022-10-31T11:22:06;31.30;;;24.23;;
18689;SDS011;9782;52.930;15.562;2022-10-31T11:24:38;28.20;;;24.35;;
18689;SDS011;9782;52.930;15.562;2022-10-31T11:27:12;40.30;;;27.17;;
18689;SDS011;9782;52.930;15.562;2022-10-31T11:29:42;28.98;;;24.08;;
18689;SDS011;9782;52.930;15.562;2022-10-31T11:32:16;31.35;;;24.73;;
18689;SDS011;9782;52.930;15.562;2022-10-31T11:34:46;26.30;;;22.10;;
18689;SDS011;9782;52.930;15.562;2022-10-31T11:37:16;31.08;;;25.35;;
18689;SDS011;9782;52.930;15.562;2022-10-31T11:39:47;28.73;;;23.27;;
18689;SDS011;9782;52.930;15.562;2022-10-31T11:42:19;30.60;;;24.95;;
18689;SDS011;9782;52.930;15.562;2022-10-31T11:44:48;30.98;;;22.98;;
18689;SDS011;9782;52.930;15.562;2022-10-31T11:47:20;26.70;;;21.92;;
18689;SDS011;9782;52.930;15.562;2022-10-31T11:49:51;27.08;;;21.63;;
18689;SDS011;9782;52.930;15.562;2022-10-31T11:52:19;27.67;;;22.65;;
18689;SDS011;9782;52.930;15.562;2022-10-31T11:54:50;32.47;;;22.58;;
18689;SDS011;9782;52.930;15.562;2022-10-31T11:57:21;28.98;;;23.02;;
18689;SDS011;9782;52.930;15.562;2022-10-31T11:59:51;32.22;;;23.65;;
18689;SDS011;9782;52.930;15.562;2022-10-31T12:02:20;27.30;;;21.50;;
18689;SDS011;9782;52.930;15.562;2022-10-31T12:04:49;23.95;;;20.58;;
18689;SDS011;9782;52.930;15.562;2022-10-31T12:07:21;32.10;;;24.45;;
18689;SDS011;9782;52.930;15.562;2022-10-31T12:09:49;36.05;;;28.25;;
18689;SDS011;9782;52.930;15.562;2022-10-31T12:12:21;27.02;;;21.67;;
18689;SDS011;9782;52.930;15.562;2022-10-31T12:15:04;30.40;;;20.55;;
18689;SDS011;9782;52.930;15.562;2022-10-31T12:17:45;26.02;;;20.88;;
18689;SDS011;9782;52.930;15.562;2022-10-31T12:20:20;29.15;;;21.42;;
18689;SDS011;9782;52.930;15.562;2022-10-31T12:22:57;24.42;;;21.27;;
18689;SDS011;9782;52.930;15.562;2022-10-31T12:25:32;28.90;;;20.77;;
18689;SDS011;9782;52.930;15.562;2022-10-31T12:28:10;26.85;;;21.00;;
18689;SDS011;9782;52.930;15.562;2022-10-31T12:30:55;27.05;;;22.73;;
18689;SDS011;9782;52.930;15.562;2022-10-31T12:33:39;25.95;;;21.77;;
18689;SDS011;9782;52.930;15.562;2022-10-31T12:39:13;41.40;;;33.72;;
18689;SDS011;9782;52.930;15.562;2022-10-31T12:41:51;30.40;;;23.42;;
18689;SDS011;9782;52.930;15.562;2022-10-31T12:44:32;26.02;;;21.63;;
18689;SDS011;9782;52.930;15.562;2022-10-31T12:47:31;23.17;;;19.80;;
18689;SDS011;9782;52.930;15.562;2022-10-31T12:50:14;28.23;;;20.63;;
18689;SDS011;9782;52.930;15.562;2022-10-31T12:52:54;24.77;;;19.50;;
18689;SDS011;9782;52.930;15.562;2022-10-31T12:55:38;30.00;;;19.88;;
18689;SDS011;9782;52.930;15.562;2022-10-31T12:58:14;23.45;;;18.73;;
18689;SDS011;9782;52.930;15.562;2022-10-31T13:00:46;24.25;;;19.55;;
18689;SDS011;9782;52.930;15.562;2022-10-31T13:03:20;32.22;;;28.83;;
18689;SDS011;9782;52.930;15.562;2022-10-31T13:05:53;32.30;;;27.77;;
18689;SDS011;9782;52.930;15.562;2022-10-31T13:08:24;26.60;;;21.05;;
18689;SDS011;9782;52.930;15.562;2022-10-31T13:11:05;30.17;;;23.30;;
18689;SDS011;9782;52.930;15.562;2022-10-31T13:13:37;29.40;;;22.90;;
18689;SDS011;9782;52.930;15.562;2022-10-31T13:16:09;25.63;;;22.40;;
18689;SDS011;9782;52.930;15.562;2022-10-31T13:18:40;29.08;;;22.58;;
18689;SDS011;9782;52.930;15.562;2022-10-31T13:21:13;26.73;;;21.95;;
18689;SDS011;9782;52.930;15.562;2022-10-31T13:23:47;29.85;;;24.17;;
18689;SDS011;9782;52.930;15.562;2022-10-31T13:26:18;29.95;;;25.00;;
18689;SDS011;9782;52.930;15.562;2022-10-31T13:28:52;27.85;;;23.55;;
18689;SDS011;9782;52.930;15.562;2022-10-31T13:31:23;33.20;;;24.45;;
18689;SDS011;9782;52.930;15.562;2022-10-31T13:33:53;32.67;;;23.77;;
18689;SDS011;9782;52.930;15.562;2022-10-31T13:36:25;31.85;;;23.92;;
18689;SDS011;9782;52.930;15.562;2022-10-31T13:39:02;33.50;;;25.73;;
18689;SDS011;9782;52.930;15.562;2022-10-31T13:41:38;37.10;;;31.13;;
18689;SDS011;9782;52.930;15.562;2022-10-31T13:44:12;41.40;;;31.63;;
18689;SDS011;9782;52.930;15.562;2022-10-31T13:46:42;180.63;;;94.43;;
18689;SDS011;9782;52.930;15.562;2022-10-31T13:49:35;114.57;;;59.58;;
18689;SDS011;9782;52.930;15.562;2022-10-31T13:52:10;128.45;;;57.38;;
18689;SDS011;9782;52.930;15.562;2022-10-31T13:54:41;61.90;;;36.55;;
18689;SDS011;9782;52.930;15.562;2022-10-31T13:57:13;49.75;;;33.85;;
18689;SDS011;9782;52.930;15.562;2022-10-31T13:59:46;63.58;;;44.92;;
18689;SDS011;9782;52.930;15.562;2022-10-31T14:02:16;79.30;;;54.42;;
18689;SDS011;9782;52.930;15.562;2022-10-31T14:04:46;53.83;;;40.25;;
18689;SDS011;9782;52.930;15.562;2022-10-31T14:07:19;48.92;;;36.83;;
18689;SDS011;9782;52.930;15.562;2022-10-31T14:09:52;38.13;;;29.13;;
18689;SDS011;9782;52.930;15.562;2022-10-31T14:12:23;38.72;;;33.58;;
18689;SDS011;9782;52.930;15.562;2022-10-31T14:14:54;36.70;;;29.48;;
18689;SDS011;9782;52.930;15.562;2022-10-31T14:17:24;34.17;;;28.05;;
18689;SDS011;9782;52.930;15.562;2022-10-31T14:20:02;35.00;;;26.52;;
18689;SDS011;9782;52.930;15.562;2022-10-31T14:22:46;40.17;;;28.77;;
18689;SDS011;9782;52.930;15.562;2022-10-31T14:25:26;39.75;;;31.48;;
18689;SDS011;9782;52.930;15.562;2022-10-31T14:27:58;39.42;;;26.70;;
18689;SDS011;9782;52.930;15.562;2022-10-31T14:30:26;42.70;;;31.33;;
18689;SDS011;9782;52.930;15.562;2022-10-31T14:32:55;51.92;;;35.28;;
18689;SDS011;9782;52.930;15.562;2022-10-31T14:35:27;59.35;;;42.50;;
18689;SDS011;9782;52.930;15.562;2022-10-31T14:38:20;56.38;;;41.95;;
18689;SDS011;9782;52.930;15.562;2022-10-31T14:41:11;63.95;;;48.10;;
18689;SDS011;9782;52.930;15.562;2022-10-31T14:44:10;57.47;;;43.28;;
18689;SDS011;9782;52.930;15.562;2022-10-31T14:46:50;47.00;;;37.78;;
18689;SDS011;9782;52.930;15.562;2022-10-31T14:49:30;50.08;;;38.53;;
18689;SDS011;9782;52.930;15.562;2022-10-31T14:52:11;53.58;;;39.15;;
18689;SDS011;9782;52.930;15.562;2022-10-31T14:54:42;50.58;;;35.35;;